sensor_id;sensor_type;location;lat;lon;timestamp;temperature;humidity
48208;DHT22;33997;53.278;9.708;2023-05-10T00:00:30;14.20;50.80
48208;DHT22;33997;53.278;9.708;2023-05-10T00:02:56;14.10;50.90
48208;DHT22;33997;53.278;9.708;2023-05-10T00:05:21;14.00;51.10
48208;DHT22;33997;53.278;9.708;2023-05-10T00:07:47;14.00;51.40
48208;DHT22;33997;53.278;9.708;2023-05-10T00:10:12;13.90;52.00
48208;DHT22;33997;53.278;9.708;2023-05-10T00:12:38;13.90;51.90
48208;DHT22;33997;53.278;9.708;2023-05-10T00:15:04;13.80;53.10
48208;DHT22;33997;53.278;9.708;2023-05-10T00:17:30;13.80;52.10
48208;DHT22;33997;53.278;9.708;2023-05-10T00:19:55;13.80;52.50
48208;DHT22;33997;53.278;9.708;2023-05-10T00:22:21;13.70;52.80
48208;DHT22;33997;53.278;9.708;2023-05-10T00:24:47;13.60;53.50
48208;DHT22;33997;53.278;9.708;2023-05-10T00:27:12;13.50;53.70
48208;DHT22;33997;53.278;9.708;2023-05-10T00:29:38;13.50;53.60
48208;DHT22;33997;53.278;9.708;2023-05-10T00:32:03;13.40;53.90
48208;DHT22;33997;53.278;9.708;2023-05-10T00:34:29;13.30;54.40
48208;DHT22;33997;53.278;9.708;2023-05-10T00:36:54;13.20;54.90
48208;DHT22;33997;53.278;9.708;2023-05-10T00:39:20;13.20;54.80
48208;DHT22;33997;53.278;9.708;2023-05-10T00:41:45;13.00;55.80
48208;DHT22;33997;53.278;9.708;2023-05-10T00:44:11;13.10;55.60
48208;DHT22;33997;53.278;9.708;2023-05-10T00:46:37;13.00;55.90
48208;DHT22;33997;53.278;9.708;2023-05-10T00:49:02;12.90;56.20
48208;DHT22;33997;53.278;9.708;2023-05-10T00:51:28;12.90;56.20
48208;DHT22;33997;53.278;9.708;2023-05-10T00:53:53;12.90;56.30
48208;DHT22;33997;53.278;9.708;2023-05-10T00:56:21;12.90;56.60
48208;DHT22;33997;53.278;9.708;2023-05-10T00:58:48;12.80;56.80
48208;DHT22;33997;53.278;9.708;2023-05-10T01:01:14;12.80;57.10
48208;DHT22;33997;53.278;9.708;2023-05-10T01:03:40;12.70;57.10
48208;DHT22;33997;53.278;9.708;2023-05-10T01:06:07;12.60;57.70
48208;DHT22;33997;53.278;9.708;2023-05-10T01:08:32;12.60;57.70
48208;DHT22;33997;53.278;9.708;2023-05-10T01:10:58;12.60;57.50
48208;DHT22;33997;53.278;9.708;2023-05-10T01:13:38;12.60;58.10
48208;DHT22;33997;53.278;9.708;2023-05-10T01:16:05;12.50;58.40
48208;DHT22;33997;53.278;9.708;2023-05-10T01:18:35;12.50;58.90
48208;DHT22;33997;53.278;9.708;2023-05-10T01:21:15;12.40;58.90
48208;DHT22;33997;53.278;9.708;2023-05-10T01:26:52;12.40;58.50
48208;DHT22;33997;53.278;9.708;2023-05-10T01:29:57;12.30;59.10
48208;DHT22;33997;53.278;9.708;2023-05-10T01:33:08;12.30;59.50
48208;DHT22;33997;53.278;9.708;2023-05-10T01:35:47;12.10;60.50
48208;DHT22;33997;53.278;9.708;2023-05-10T01:38:22;12.30;59.30
48208;DHT22;33997;53.278;9.708;2023-05-10T01:43:57;12.20;60.20
48208;DHT22;33997;53.278;9.708;2023-05-10T01:46:36;12.20;60.30
48208;DHT22;33997;53.278;9.708;2023-05-10T01:49:09;12.20;60.20
48208;DHT22;33997;53.278;9.708;2023-05-10T01:51:44;12.20;60.10
48208;DHT22;33997;53.278;9.708;2023-05-10T01:54:13;12.10;60.90
48208;DHT22;33997;53.278;9.708;2023-05-10T01:56:39;12.10;60.30
48208;DHT22;33997;53.278;9.708;2023-05-10T01:59:11;12.10;60.90
48208;DHT22;33997;53.278;9.708;2023-05-10T02:01:38;12.00;61.60
48208;DHT22;33997;53.278;9.708;2023-05-10T02:04:05;12.00;61.20
48208;DHT22;33997;53.278;9.708;2023-05-10T02:06:32;12.00;61.60
48208;DHT22;33997;53.278;9.708;2023-05-10T02:08:58;12.00;61.30
48208;DHT22;33997;53.278;9.708;2023-05-10T02:11:27;11.90;61.60
48208;DHT22;33997;53.278;9.708;2023-05-10T02:13:55;11.90;62.00
48208;DHT22;33997;53.278;9.708;2023-05-10T02:16:24;11.80;62.50
48208;DHT22;33997;53.278;9.708;2023-05-10T02:18:51;11.80;62.30
48208;DHT22;33997;53.278;9.708;2023-05-10T02:21:17;11.80;62.40
48208;DHT22;33997;53.278;9.708;2023-05-10T02:23:45;11.80;62.90
48208;DHT22;33997;53.278;9.708;2023-05-10T02:26:11;11.70;63.00
48208;DHT22;33997;53.278;9.708;2023-05-10T02:28:38;11.70;62.90
48208;DHT22;33997;53.278;9.708;2023-05-10T02:31:06;11.70;63.20
48208;DHT22;33997;53.278;9.708;2023-05-10T02:33:32;11.60;63.30
48208;DHT22;33997;53.278;9.708;2023-05-10T02:35:59;11.60;63.50
48208;DHT22;33997;53.278;9.708;2023-05-10T02:38:25;11.60;63.40
48208;DHT22;33997;53.278;9.708;2023-05-10T02:40:52;11.60;63.60
48208;DHT22;33997;53.278;9.708;2023-05-10T02:43:19;11.60;63.70
48208;DHT22;33997;53.278;9.708;2023-05-10T02:45:47;11.60;63.70
48208;DHT22;33997;53.278;9.708;2023-05-10T02:48:13;11.50;64.20
48208;DHT22;33997;53.278;9.708;2023-05-10T02:50:45;11.60;63.80
48208;DHT22;33997;53.278;9.708;2023-05-10T02:53:18;11.60;64.10
48208;DHT22;33997;53.278;9.708;2023-05-10T02:55:45;11.50;64.60
48208;DHT22;33997;53.278;9.708;2023-05-10T02:58:13;11.50;64.50
48208;DHT22;33997;53.278;9.708;2023-05-10T03:00:38;11.50;64.50
48208;DHT22;33997;53.278;9.708;2023-05-10T03:03:04;11.50;64.70
48208;DHT22;33997;53.278;9.708;2023-05-10T03:05:29;11.50;64.50
48208;DHT22;33997;53.278;9.708;2023-05-10T03:07:55;11.50;65.00
48208;DHT22;33997;53.278;9.708;2023-05-10T03:10:24;11.50;65.00
48208;DHT22;33997;53.278;9.708;2023-05-10T03:12:55;11.40;65.30
48208;DHT22;33997;53.278;9.708;2023-05-10T03:20:47;11.40;65.80
48208;DHT22;33997;53.278;9.708;2023-05-10T03:23:35;11.50;65.30
48208;DHT22;33997;53.278;9.708;2023-05-10T03:26:08;11.40;65.80
48208;DHT22;33997;53.278;9.708;2023-05-10T03:28:34;11.40;66.20
48208;DHT22;33997;53.278;9.708;2023-05-10T03:31:02;11.50;65.70
48208;DHT22;33997;53.278;9.708;2023-05-10T03:33:28;11.40;66.20
48208;DHT22;33997;53.278;9.708;2023-05-10T03:35:54;11.40;66.50
48208;DHT22;33997;53.278;9.708;2023-05-10T03:38:19;11.40;66.20
48208;DHT22;33997;53.278;9.708;2023-05-10T03:40:44;11.40;66.30
48208;DHT22;33997;53.278;9.708;2023-05-10T03:43:10;11.40;66.40
48208;DHT22;33997;53.278;9.708;2023-05-10T03:45:35;11.40;66.60
48208;DHT22;33997;53.278;9.708;2023-05-10T03:48:01;11.50;66.40
48208;DHT22;33997;53.278;9.708;2023-05-10T03:50:27;11.50;66.60
48208;DHT22;33997;53.278;9.708;2023-05-10T03:52:52;11.50;66.80
48208;DHT22;33997;53.278;9.708;2023-05-10T03:55:18;11.50;66.80
48208;DHT22;33997;53.278;9.708;2023-05-10T03:57:43;11.50;66.50
48208;DHT22;33997;53.278;9.708;2023-05-10T04:00:10;11.50;66.80
48208;DHT22;33997;53.278;9.708;2023-05-10T04:02:36;11.60;66.70
48208;DHT22;33997;53.278;9.708;2023-05-10T04:05:01;11.60;66.60
48208;DHT22;33997;53.278;9.708;2023-05-10T04:07:27;11.60;66.80
48208;DHT22;33997;53.278;9.708;2023-05-10T04:09:53;11.70;66.60
48208;DHT22;33997;53.278;9.708;2023-05-10T04:12:18;11.70;66.80
48208;DHT22;33997;53.278;9.708;2023-05-10T04:14:44;11.70;67.00
48208;DHT22;33997;53.278;9.708;2023-05-10T04:17:09;11.80;66.40
48208;DHT22;33997;53.278;9.708;2023-05-10T04:19:35;11.80;66.40
48208;DHT22;33997;53.278;9.708;2023-05-10T04:22:02;11.80;66.90
48208;DHT22;33997;53.278;9.708;2023-05-10T04:24:28;11.90;66.70
48208;DHT22;33997;53.278;9.708;2023-05-10T04:26:54;11.90;66.90
48208;DHT22;33997;53.278;9.708;2023-05-10T04:29:20;12.00;67.00
48208;DHT22;33997;53.278;9.708;2023-05-10T04:31:45;12.00;66.90
48208;DHT22;33997;53.278;9.708;2023-05-10T04:34:11;12.00;66.60
48208;DHT22;33997;53.278;9.708;2023-05-10T04:36:36;12.10;66.30
48208;DHT22;33997;53.278;9.708;2023-05-10T04:39:03;12.10;66.30
48208;DHT22;33997;53.278;9.708;2023-05-10T04:41:28;12.20;66.50
48208;DHT22;33997;53.278;9.708;2023-05-10T04:43:54;12.20;66.50
48208;DHT22;33997;53.278;9.708;2023-05-10T04:46:20;12.30;66.40
48208;DHT22;33997;53.278;9.708;2023-05-10T04:48:45;12.30;66.60
48208;DHT22;33997;53.278;9.708;2023-05-10T04:51:11;12.30;66.20
48208;DHT22;33997;53.278;9.708;2023-05-10T04:53:36;12.40;67.00
48208;DHT22;33997;53.278;9.708;2023-05-10T04:56:02;12.40;65.90
48208;DHT22;33997;53.278;9.708;2023-05-10T04:58:27;12.50;66.40
48208;DHT22;33997;53.278;9.708;2023-05-10T05:00:53;12.60;65.80
48208;DHT22;33997;53.278;9.708;2023-05-10T05:03:18;12.60;66.10
48208;DHT22;33997;53.278;9.708;2023-05-10T05:05:44;12.60;65.60
48208;DHT22;33997;53.278;9.708;2023-05-10T05:08:10;12.70;66.10
48208;DHT22;33997;53.278;9.708;2023-05-10T05:10:35;12.80;66.70
48208;DHT22;33997;53.278;9.708;2023-05-10T05:13:01;12.80;65.20
48208;DHT22;33997;53.278;9.708;2023-05-10T05:15:26;12.90;65.00
48208;DHT22;33997;53.278;9.708;2023-05-10T05:17:52;13.00;65.30
48208;DHT22;33997;53.278;9.708;2023-05-10T05:20:18;13.10;66.00
48208;DHT22;33997;53.278;9.708;2023-05-10T05:22:44;13.00;65.20
48208;DHT22;33997;53.278;9.708;2023-05-10T05:25:10;13.20;65.80
48208;DHT22;33997;53.278;9.708;2023-05-10T05:27:36;13.20;65.10
48208;DHT22;33997;53.278;9.708;2023-05-10T05:30:02;13.30;65.50
48208;DHT22;33997;53.278;9.708;2023-05-10T05:32:28;13.40;64.20
48208;DHT22;33997;53.278;9.708;2023-05-10T05:34:53;13.60;65.30
48208;DHT22;33997;53.278;9.708;2023-05-10T05:37:20;13.60;64.70
48208;DHT22;33997;53.278;9.708;2023-05-10T05:39:47;13.60;63.90
48208;DHT22;33997;53.278;9.708;2023-05-10T05:42:13;13.60;64.40
48208;DHT22;33997;53.278;9.708;2023-05-10T05:44:39;13.70;63.90
48208;DHT22;33997;53.278;9.708;2023-05-10T05:47:05;13.70;63.40
48208;DHT22;33997;53.278;9.708;2023-05-10T05:49:31;13.90;64.30
48208;DHT22;33997;53.278;9.708;2023-05-10T05:52:00;13.70;63.00
48208;DHT22;33997;53.278;9.708;2023-05-10T05:54:26;13.70;64.10
48208;DHT22;33997;53.278;9.708;2023-05-10T05:56:54;13.60;64.10
48208;DHT22;33997;53.278;9.708;2023-05-10T05:59:20;13.60;63.70
48208;DHT22;33997;53.278;9.708;2023-05-10T06:01:46;13.60;64.30
48208;DHT22;33997;53.278;9.708;2023-05-10T06:04:11;13.60;63.30
48208;DHT22;33997;53.278;9.708;2023-05-10T06:06:37;13.70;64.40
48208;DHT22;33997;53.278;9.708;2023-05-10T06:09:03;13.80;64.50
48208;DHT22;33997;53.278;9.708;2023-05-10T06:11:28;13.80;63.50
48208;DHT22;33997;53.278;9.708;2023-05-10T06:13:54;13.80;64.00
48208;DHT22;33997;53.278;9.708;2023-05-10T06:16:19;13.90;64.20
48208;DHT22;33997;53.278;9.708;2023-05-10T06:18:45;14.00;64.40
48208;DHT22;33997;53.278;9.708;2023-05-10T06:21:10;14.00;63.90
48208;DHT22;33997;53.278;9.708;2023-05-10T06:23:36;13.90;63.30
48208;DHT22;33997;53.278;9.708;2023-05-10T06:26:01;14.10;63.90
48208;DHT22;33997;53.278;9.708;2023-05-10T06:28:27;14.10;63.80
48208;DHT22;33997;53.278;9.708;2023-05-10T06:30:52;14.30;63.40
48208;DHT22;33997;53.278;9.708;2023-05-10T06:33:18;14.30;62.40
48208;DHT22;33997;53.278;9.708;2023-05-10T06:35:43;14.30;62.80
48208;DHT22;33997;53.278;9.708;2023-05-10T06:38:09;14.20;62.50
48208;DHT22;33997;53.278;9.708;2023-05-10T06:40:34;14.20;62.80
48208;DHT22;33997;53.278;9.708;2023-05-10T06:43:01;14.30;64.20
48208;DHT22;33997;53.278;9.708;2023-05-10T06:45:26;14.10;62.90
48208;DHT22;33997;53.278;9.708;2023-05-10T06:47:52;14.00;64.10
48208;DHT22;33997;53.278;9.708;2023-05-10T06:50:18;14.10;64.40
48208;DHT22;33997;53.278;9.708;2023-05-10T06:52:43;14.00;65.90
48208;DHT22;33997;53.278;9.708;2023-05-10T06:55:09;14.00;65.50
48208;DHT22;33997;53.278;9.708;2023-05-10T06:57:35;14.00;65.50
48208;DHT22;33997;53.278;9.708;2023-05-10T07:00:01;13.90;65.10
48208;DHT22;33997;53.278;9.708;2023-05-10T07:02:26;13.80;65.20
48208;DHT22;33997;53.278;9.708;2023-05-10T07:04:52;14.00;65.50
48208;DHT22;33997;53.278;9.708;2023-05-10T07:07:18;14.00;65.60
48208;DHT22;33997;53.278;9.708;2023-05-10T07:09:44;13.80;65.60
48208;DHT22;33997;53.278;9.708;2023-05-10T07:12:10;14.00;66.40
48208;DHT22;33997;53.278;9.708;2023-05-10T07:14:35;13.80;66.50
48208;DHT22;33997;53.278;9.708;2023-05-10T07:17:01;13.80;67.90
48208;DHT22;33997;53.278;9.708;2023-05-10T07:19:26;13.80;67.50
48208;DHT22;33997;53.278;9.708;2023-05-10T07:21:52;13.80;68.80
48208;DHT22;33997;53.278;9.708;2023-05-10T07:24:17;13.70;69.80
48208;DHT22;33997;53.278;9.708;2023-05-10T07:26:42;13.80;70.80
48208;DHT22;33997;53.278;9.708;2023-05-10T07:29:08;13.80;71.90
48208;DHT22;33997;53.278;9.708;2023-05-10T07:31:33;13.80;71.30
48208;DHT22;33997;53.278;9.708;2023-05-10T07:33:59;13.70;73.10
48208;DHT22;33997;53.278;9.708;2023-05-10T07:36:24;13.80;74.40
48208;DHT22;33997;53.278;9.708;2023-05-10T07:38:50;13.60;74.90
48208;DHT22;33997;53.278;9.708;2023-05-10T07:41:15;13.70;74.50
48208;DHT22;33997;53.278;9.708;2023-05-10T07:43:41;13.80;74.00
48208;DHT22;33997;53.278;9.708;2023-05-10T07:46:06;13.80;73.90
48208;DHT22;33997;53.278;9.708;2023-05-10T07:48:32;13.80;74.00
48208;DHT22;33997;53.278;9.708;2023-05-10T07:50:58;13.60;75.90
48208;DHT22;33997;53.278;9.708;2023-05-10T07:53:23;13.70;74.20
48208;DHT22;33997;53.278;9.708;2023-05-10T07:55:54;14.00;75.20
48208;DHT22;33997;53.278;9.708;2023-05-10T07:58:22;14.10;74.80
48208;DHT22;33997;53.278;9.708;2023-05-10T08:00:47;14.10;73.80
48208;DHT22;33997;53.278;9.708;2023-05-10T08:03:14;13.90;75.30
48208;DHT22;33997;53.278;9.708;2023-05-10T08:05:40;14.00;75.90
48208;DHT22;33997;53.278;9.708;2023-05-10T08:08:05;13.90;76.70
48208;DHT22;33997;53.278;9.708;2023-05-10T08:10:31;13.70;76.30
48208;DHT22;33997;53.278;9.708;2023-05-10T08:12:57;13.70;77.10
48208;DHT22;33997;53.278;9.708;2023-05-10T08:15:24;13.70;77.60
48208;DHT22;33997;53.278;9.708;2023-05-10T08:17:50;13.60;77.20
48208;DHT22;33997;53.278;9.708;2023-05-10T08:20:15;13.50;78.80
48208;DHT22;33997;53.278;9.708;2023-05-10T08:22:46;13.30;79.50
48208;DHT22;33997;53.278;9.708;2023-05-10T08:25:12;13.30;80.10
48208;DHT22;33997;53.278;9.708;2023-05-10T08:27:37;13.20;80.50
48208;DHT22;33997;53.278;9.708;2023-05-10T08:30:03;13.10;81.80
48208;DHT22;33997;53.278;9.708;2023-05-10T08:32:29;12.90;82.50
48208;DHT22;33997;53.278;9.708;2023-05-10T08:34:55;12.80;83.50
48208;DHT22;33997;53.278;9.708;2023-05-10T08:37:22;12.70;84.50
48208;DHT22;33997;53.278;9.708;2023-05-10T08:39:47;12.60;85.00
48208;DHT22;33997;53.278;9.708;2023-05-10T08:42:18;12.60;85.40
48208;DHT22;33997;53.278;9.708;2023-05-10T08:44:44;12.50;86.70
48208;DHT22;33997;53.278;9.708;2023-05-10T08:47:13;12.50;87.20
48208;DHT22;33997;53.278;9.708;2023-05-10T08:49:40;12.40;87.20
48208;DHT22;33997;53.278;9.708;2023-05-10T08:52:07;12.50;88.30
48208;DHT22;33997;53.278;9.708;2023-05-10T08:54:33;12.50;89.40
48208;DHT22;33997;53.278;9.708;2023-05-10T08:56:59;12.30;90.10
48208;DHT22;33997;53.278;9.708;2023-05-10T08:59:25;12.30;90.80
48208;DHT22;33997;53.278;9.708;2023-05-10T09:01:51;12.10;91.10
48208;DHT22;33997;53.278;9.708;2023-05-10T09:04:19;12.00;91.50
48208;DHT22;33997;53.278;9.708;2023-05-10T09:06:45;12.10;92.20
48208;DHT22;33997;53.278;9.708;2023-05-10T09:09:11;12.10;92.60
48208;DHT22;33997;53.278;9.708;2023-05-10T09:11:37;12.00;93.10
48208;DHT22;33997;53.278;9.708;2023-05-10T09:14:03;11.90;92.80
48208;DHT22;33997;53.278;9.708;2023-05-10T09:16:29;11.80;93.50
48208;DHT22;33997;53.278;9.708;2023-05-10T09:18:54;11.80;93.70
48208;DHT22;33997;53.278;9.708;2023-05-10T09:21:20;11.80;93.30
48208;DHT22;33997;53.278;9.708;2023-05-10T09:23:47;11.80;93.70
48208;DHT22;33997;53.278;9.708;2023-05-10T09:26:12;11.70;93.90
48208;DHT22;33997;53.278;9.708;2023-05-10T09:28:54;11.60;93.60
48208;DHT22;33997;53.278;9.708;2023-05-10T09:31:21;11.80;94.10
48208;DHT22;33997;53.278;9.708;2023-05-10T09:33:48;12.00;94.40
48208;DHT22;33997;53.278;9.708;2023-05-10T09:36:14;12.10;94.20
48208;DHT22;33997;53.278;9.708;2023-05-10T09:41:17;12.20;94.10
48208;DHT22;33997;53.278;9.708;2023-05-10T09:43:43;12.40;93.70
48208;DHT22;33997;53.278;9.708;2023-05-10T09:46:09;12.50;94.30
48208;DHT22;33997;53.278;9.708;2023-05-10T09:48:42;12.70;94.00
48208;DHT22;33997;53.278;9.708;2023-05-10T09:51:08;12.60;93.70
48208;DHT22;33997;53.278;9.708;2023-05-10T09:53:33;12.90;94.10
48208;DHT22;33997;53.278;9.708;2023-05-10T09:55:59;12.80;93.50
48208;DHT22;33997;53.278;9.708;2023-05-10T09:58:24;12.60;92.50
48208;DHT22;33997;53.278;9.708;2023-05-10T10:00:50;12.60;92.90
48208;DHT22;33997;53.278;9.708;2023-05-10T10:03:20;12.60;93.10
48208;DHT22;33997;53.278;9.708;2023-05-10T10:05:47;12.80;94.10
48208;DHT22;33997;53.278;9.708;2023-05-10T10:08:13;12.80;93.70
48208;DHT22;33997;53.278;9.708;2023-05-10T10:10:40;12.50;93.50
48208;DHT22;33997;53.278;9.708;2023-05-10T10:13:07;12.50;93.50
48208;DHT22;33997;53.278;9.708;2023-05-10T10:15:33;12.40;94.10
48208;DHT22;33997;53.278;9.708;2023-05-10T10:17:59;12.50;94.00
48208;DHT22;33997;53.278;9.708;2023-05-10T10:20:26;12.40;94.30
48208;DHT22;33997;53.278;9.708;2023-05-10T10:22:52;12.40;94.60
48208;DHT22;33997;53.278;9.708;2023-05-10T10:25:19;12.40;94.20
48208;DHT22;33997;53.278;9.708;2023-05-10T10:30:41;12.50;94.30
48208;DHT22;33997;53.278;9.708;2023-05-10T10:33:23;12.40;94.40
48208;DHT22;33997;53.278;9.708;2023-05-10T10:35:53;12.50;94.90
48208;DHT22;33997;53.278;9.708;2023-05-10T10:38:19;12.60;94.40
48208;DHT22;33997;53.278;9.708;2023-05-10T10:40:47;13.00;95.10
48208;DHT22;33997;53.278;9.708;2023-05-10T10:43:26;13.10;94.90
48208;DHT22;33997;53.278;9.708;2023-05-10T10:46:16;13.10;94.60
48208;DHT22;33997;53.278;9.708;2023-05-10T10:48:48;13.30;94.20
48208;DHT22;33997;53.278;9.708;2023-05-10T10:51:14;13.00;93.70
48208;DHT22;33997;53.278;9.708;2023-05-10T10:53:40;13.20;94.40
48208;DHT22;33997;53.278;9.708;2023-05-10T10:56:08;13.10;94.10
48208;DHT22;33997;53.278;9.708;2023-05-10T10:58:36;13.30;94.80
48208;DHT22;33997;53.278;9.708;2023-05-10T11:01:16;13.50;94.30
48208;DHT22;33997;53.278;9.708;2023-05-10T11:06:35;13.60;94.30
48208;DHT22;33997;53.278;9.708;2023-05-10T11:09:12;13.80;94.10
48208;DHT22;33997;53.278;9.708;2023-05-10T11:11:54;13.70;92.90
48208;DHT22;33997;53.278;9.708;2023-05-10T11:14:23;13.80;93.50
48208;DHT22;33997;53.278;9.708;2023-05-10T11:16:49;13.80;93.90
48208;DHT22;33997;53.278;9.708;2023-05-10T11:19:16;14.10;94.00
48208;DHT22;33997;53.278;9.708;2023-05-10T11:21:47;14.10;93.30
48208;DHT22;33997;53.278;9.708;2023-05-10T11:24:15;14.20;93.10
48208;DHT22;33997;53.278;9.708;2023-05-10T11:26:41;14.10;92.90
48208;DHT22;33997;53.278;9.708;2023-05-10T11:29:07;14.50;93.20
48208;DHT22;33997;53.278;9.708;2023-05-10T11:31:33;14.40;93.20
48208;DHT22;33997;53.278;9.708;2023-05-10T11:33:59;14.60;92.60
48208;DHT22;33997;53.278;9.708;2023-05-10T11:36:28;14.70;93.00
48208;DHT22;33997;53.278;9.708;2023-05-10T11:38:56;14.50;91.00
48208;DHT22;33997;53.278;9.708;2023-05-10T11:41:23;14.80;93.20
48208;DHT22;33997;53.278;9.708;2023-05-10T11:43:55;14.90;92.30
48208;DHT22;33997;53.278;9.708;2023-05-10T11:46:22;14.80;92.60
48208;DHT22;33997;53.278;9.708;2023-05-10T11:49:01;14.80;92.00
48208;DHT22;33997;53.278;9.708;2023-05-10T11:51:27;15.00;93.00
48208;DHT22;33997;53.278;9.708;2023-05-10T11:53:54;14.90;91.70
48208;DHT22;33997;53.278;9.708;2023-05-10T11:56:19;15.10;93.00
48208;DHT22;33997;53.278;9.708;2023-05-10T11:58:51;15.30;91.80
48208;DHT22;33997;53.278;9.708;2023-05-10T12:01:16;15.30;92.00
48208;DHT22;33997;53.278;9.708;2023-05-10T12:03:42;14.90;90.90
48208;DHT22;33997;53.278;9.708;2023-05-10T12:06:07;15.40;91.90
48208;DHT22;33997;53.278;9.708;2023-05-10T12:08:33;15.80;91.30
48208;DHT22;33997;53.278;9.708;2023-05-10T12:11:09;15.40;91.70
48208;DHT22;33997;53.278;9.708;2023-05-10T12:13:39;15.60;92.10
48208;DHT22;33997;53.278;9.708;2023-05-10T12:16:25;15.40;90.60
48208;DHT22;33997;53.278;9.708;2023-05-10T12:18:52;15.10;91.40
48208;DHT22;33997;53.278;9.708;2023-05-10T12:21:21;15.20;92.50
48208;DHT22;33997;53.278;9.708;2023-05-10T12:23:52;15.20;90.50
48208;DHT22;33997;53.278;9.708;2023-05-10T12:26:18;15.40;91.40
48208;DHT22;33997;53.278;9.708;2023-05-10T12:28:44;15.40;90.70
48208;DHT22;33997;53.278;9.708;2023-05-10T12:31:09;15.50;90.80
48208;DHT22;33997;53.278;9.708;2023-05-10T12:33:36;15.80;91.30
48208;DHT22;33997;53.278;9.708;2023-05-10T12:36:04;16.00;90.30
48208;DHT22;33997;53.278;9.708;2023-05-10T12:38:41;15.80;91.30
48208;DHT22;33997;53.278;9.708;2023-05-10T12:41:10;16.10;90.50
48208;DHT22;33997;53.278;9.708;2023-05-10T12:43:36;16.20;90.10
48208;DHT22;33997;53.278;9.708;2023-05-10T12:46:09;16.20;89.80
48208;DHT22;33997;53.278;9.708;2023-05-10T12:48:36;16.40;88.80
48208;DHT22;33997;53.278;9.708;2023-05-10T12:51:02;16.30;89.00
48208;DHT22;33997;53.278;9.708;2023-05-10T12:53:28;16.30;88.90
48208;DHT22;33997;53.278;9.708;2023-05-10T12:55:54;16.30;90.30
48208;DHT22;33997;53.278;9.708;2023-05-10T12:58:20;16.50;88.50
48208;DHT22;33997;53.278;9.708;2023-05-10T13:00:45;16.60;88.90
48208;DHT22;33997;53.278;9.708;2023-05-10T13:03:11;17.00;88.00
48208;DHT22;33997;53.278;9.708;2023-05-10T13:05:37;16.90;88.40
48208;DHT22;33997;53.278;9.708;2023-05-10T13:08:03;16.70;87.70
48208;DHT22;33997;53.278;9.708;2023-05-10T13:10:32;16.60;88.90
48208;DHT22;33997;53.278;9.708;2023-05-10T13:12:58;16.10;89.10
48208;DHT22;33997;53.278;9.708;2023-05-10T13:15:24;15.90;89.80
48208;DHT22;33997;53.278;9.708;2023-05-10T13:17:49;16.00;89.60
48208;DHT22;33997;53.278;9.708;2023-05-10T13:20:15;16.30;90.60
48208;DHT22;33997;53.278;9.708;2023-05-10T13:22:42;16.30;89.50
48208;DHT22;33997;53.278;9.708;2023-05-10T13:25:08;16.60;89.70
48208;DHT22;33997;53.278;9.708;2023-05-10T13:27:33;17.10;89.10
48208;DHT22;33997;53.278;9.708;2023-05-10T13:29:59;17.20;86.60
48208;DHT22;33997;53.278;9.708;2023-05-10T13:32:25;17.00;86.80
48208;DHT22;33997;53.278;9.708;2023-05-10T13:34:51;17.20;87.30
48208;DHT22;33997;53.278;9.708;2023-05-10T13:37:16;17.20;85.70
48208;DHT22;33997;53.278;9.708;2023-05-10T13:39:42;17.50;86.20
48208;DHT22;33997;53.278;9.708;2023-05-10T13:42:07;17.50;84.70
48208;DHT22;33997;53.278;9.708;2023-05-10T13:44:33;17.70;83.70
48208;DHT22;33997;53.278;9.708;2023-05-10T13:46:59;17.50;83.80
48208;DHT22;33997;53.278;9.708;2023-05-10T13:49:24;17.60;84.00
48208;DHT22;33997;53.278;9.708;2023-05-10T13:51:49;17.80;84.50
48208;DHT22;33997;53.278;9.708;2023-05-10T13:54:16;18.20;84.00
48208;DHT22;33997;53.278;9.708;2023-05-10T13:56:44;18.00;83.90
48208;DHT22;33997;53.278;9.708;2023-05-10T13:59:10;18.10;82.70
48208;DHT22;33997;53.278;9.708;2023-05-10T14:01:36;18.00;83.30
48208;DHT22;33997;53.278;9.708;2023-05-10T14:04:01;18.00;83.30
48208;DHT22;33997;53.278;9.708;2023-05-10T14:06:27;17.60;84.50
48208;DHT22;33997;53.278;9.708;2023-05-10T14:08:52;17.60;83.20
48208;DHT22;33997;53.278;9.708;2023-05-10T14:11:19;17.70;84.50
48208;DHT22;33997;53.278;9.708;2023-05-10T14:13:44;17.30;84.10
48208;DHT22;33997;53.278;9.708;2023-05-10T14:16:10;17.30;84.40
48208;DHT22;33997;53.278;9.708;2023-05-10T14:18:36;17.20;84.80
48208;DHT22;33997;53.278;9.708;2023-05-10T14:21:03;17.10;85.10
48208;DHT22;33997;53.278;9.708;2023-05-10T14:23:28;17.00;85.20
48208;DHT22;33997;53.278;9.708;2023-05-10T14:25:54;17.00;86.90
48208;DHT22;33997;53.278;9.708;2023-05-10T14:28:19;17.10;86.70
48208;DHT22;33997;53.278;9.708;2023-05-10T14:30:46;16.80;86.80
48208;DHT22;33997;53.278;9.708;2023-05-10T14:33:12;16.60;87.30
48208;DHT22;33997;53.278;9.708;2023-05-10T14:35:37;16.40;88.30
48208;DHT22;33997;53.278;9.708;2023-05-10T14:38:03;16.10;88.60
48208;DHT22;33997;53.278;9.708;2023-05-10T14:40:29;15.50;91.90
48208;DHT22;33997;53.278;9.708;2023-05-10T14:42:55;15.00;93.80
48208;DHT22;33997;53.278;9.708;2023-05-10T14:45:21;14.90;94.70
48208;DHT22;33997;53.278;9.708;2023-05-10T14:47:47;14.60;95.30
48208;DHT22;33997;53.278;9.708;2023-05-10T14:50:13;14.60;95.50
48208;DHT22;33997;53.278;9.708;2023-05-10T14:52:38;14.70;95.90
48208;DHT22;33997;53.278;9.708;2023-05-10T14:55:04;14.90;95.90
48208;DHT22;33997;53.278;9.708;2023-05-10T14:57:30;14.90;95.40
48208;DHT22;33997;53.278;9.708;2023-05-10T14:59:56;15.00;95.30
48208;DHT22;33997;53.278;9.708;2023-05-10T15:02:22;15.30;95.50
48208;DHT22;33997;53.278;9.708;2023-05-10T15:04:47;15.50;95.30
48208;DHT22;33997;53.278;9.708;2023-05-10T15:07:13;15.60;94.90
48208;DHT22;33997;53.278;9.708;2023-05-10T15:09:40;15.80;95.00
48208;DHT22;33997;53.278;9.708;2023-05-10T15:12:06;15.80;94.60
48208;DHT22;33997;53.278;9.708;2023-05-10T15:14:31;15.80;94.00
48208;DHT22;33997;53.278;9.708;2023-05-10T15:16:58;15.80;94.00
48208;DHT22;33997;53.278;9.708;2023-05-10T15:19:24;15.80;94.00
48208;DHT22;33997;53.278;9.708;2023-05-10T15:21:49;15.90;94.40
48208;DHT22;33997;53.278;9.708;2023-05-10T15:24:14;15.90;94.10
48208;DHT22;33997;53.278;9.708;2023-05-10T15:26:40;16.10;93.30
48208;DHT22;33997;53.278;9.708;2023-05-10T15:29:06;16.20;93.10
48208;DHT22;33997;53.278;9.708;2023-05-10T15:31:31;16.30;92.20
48208;DHT22;33997;53.278;9.708;2023-05-10T15:34:00;16.30;91.70
48208;DHT22;33997;53.278;9.708;2023-05-10T15:36:25;16.30;91.90
48208;DHT22;33997;53.278;9.708;2023-05-10T15:38:51;16.20;92.50
48208;DHT22;33997;53.278;9.708;2023-05-10T15:41:16;16.10;93.10
48208;DHT22;33997;53.278;9.708;2023-05-10T15:43:42;16.00;92.90
48208;DHT22;33997;53.278;9.708;2023-05-10T15:46:07;15.70;92.30
48208;DHT22;33997;53.278;9.708;2023-05-10T15:48:33;15.50;92.50